sensor_id;sensor_type;location;lat;lon;timestamp;temperature;humidity
20345;DHT22;10330;48.816;9.278;2022-12-17T00:01:33;-3.30;99.90
20345;DHT22;10330;48.816;9.278;2022-12-17T00:04:18;-3.20;99.90
20345;DHT22;10330;48.816;9.278;2022-12-17T00:07:03;-3.30;99.90
20345;DHT22;10330;48.816;9.278;2022-12-17T00:09:47;-3.30;99.90
20345;DHT22;10330;48.816;9.278;2022-12-17T00:12:32;-3.30;99.90
20345;DHT22;10330;48.816;9.278;2022-12-17T00:15:17;-3.30;99.90
20345;DHT22;10330;48.816;9.278;2022-12-17T00:18:06;-3.30;99.90
20345;DHT22;10330;48.816;9.278;2022-12-17T00:20:59;-3.30;99.90
20345;DHT22;10330;48.816;9.278;2022-12-17T00:23:44;-3.30;99.90
20345;DHT22;10330;48.816;9.278;2022-12-17T00:26:30;-3.30;99.90
20345;DHT22;10330;48.816;9.278;2022-12-17T00:29:14;-3.30;99.90
20345;DHT22;10330;48.816;9.278;2022-12-17T00:32:00;-3.40;99.90
20345;DHT22;10330;48.816;9.278;2022-12-17T00:34:44;-3.40;99.90
20345;DHT22;10330;48.816;9.278;2022-12-17T00:37:30;-3.40;99.90
20345;DHT22;10330;48.816;9.278;2022-12-17T00:40:20;-3.40;99.90
20345;DHT22;10330;48.816;9.278;2022-12-17T00:43:11;-3.50;99.90
20345;DHT22;10330;48.816;9.278;2022-12-17T00:45:56;-3.50;99.90
20345;DHT22;10330;48.816;9.278;2022-12-17T00:48:42;-3.50;99.90
20345;DHT22;10330;48.816;9.278;2022-12-17T00:51:27;-3.50;99.90
20345;DHT22;10330;48.816;9.278;2022-12-17T00:54:13;-3.40;99.90
20345;DHT22;10330;48.816;9.278;2022-12-17T00:56:57;-3.50;99.90
20345;DHT22;10330;48.816;9.278;2022-12-17T00:59:51;-3.50;99.90
20345;DHT22;10330;48.816;9.278;2022-12-17T01:02:44;-3.50;99.90
20345;DHT22;10330;48.816;9.278;2022-12-17T01:05:31;-3.60;99.90
20345;DHT22;10330;48.816;9.278;2022-12-17T01:08:16;-3.60;99.90
20345;DHT22;10330;48.816;9.278;2022-12-17T01:11:05;-3.60;99.90
20345;DHT22;10330;48.816;9.278;2022-12-17T01:13:54;-3.70;99.90
20345;DHT22;10330;48.816;9.278;2022-12-17T01:16:39;-3.70;99.90
20345;DHT22;10330;48.816;9.278;2022-12-17T01:19:23;-3.70;99.90
20345;DHT22;10330;48.816;9.278;2022-12-17T01:22:08;-3.80;99.90
20345;DHT22;10330;48.816;9.278;2022-12-17T01:24:52;-3.80;99.90
20345;DHT22;10330;48.816;9.278;2022-12-17T01:27:37;-3.90;99.90
20345;DHT22;10330;48.816;9.278;2022-12-17T01:30:22;-3.90;99.90
20345;DHT22;10330;48.816;9.278;2022-12-17T01:33:13;-3.90;99.90
20345;DHT22;10330;48.816;9.278;2022-12-17T01:35:58;-4.00;99.90
20345;DHT22;10330;48.816;9.278;2022-12-17T01:38:44;-4.00;99.90
20345;DHT22;10330;48.816;9.278;2022-12-17T01:41:29;-4.10;99.90
20345;DHT22;10330;48.816;9.278;2022-12-17T01:47:50;-4.10;99.90
20345;DHT22;10330;48.816;9.278;2022-12-17T01:50:47;-4.10;99.90
20345;DHT22;10330;48.816;9.278;2022-12-17T01:53:37;-4.10;99.90
20345;DHT22;10330;48.816;9.278;2022-12-17T01:56:24;-4.20;99.90
20345;DHT22;10330;48.816;9.278;2022-12-17T01:59:12;-4.20;99.90
20345;DHT22;10330;48.816;9.278;2022-12-17T02:02:00;-4.30;99.90
20345;DHT22;10330;48.816;9.278;2022-12-17T02:04:45;-4.30;99.90
20345;DHT22;10330;48.816;9.278;2022-12-17T02:10:48;-4.30;99.90
20345;DHT22;10330;48.816;9.278;2022-12-17T02:13:42;-4.30;99.90
20345;DHT22;10330;48.816;9.278;2022-12-17T02:16:48;-4.20;99.90
20345;DHT22;10330;48.816;9.278;2022-12-17T02:20:01;-4.20;99.90
20345;DHT22;10330;48.816;9.278;2022-12-17T02:23:01;-4.20;99.90
20345;DHT22;10330;48.816;9.278;2022-12-17T02:26:00;-4.20;99.90
20345;DHT22;10330;48.816;9.278;2022-12-17T02:28:48;-4.20;99.90
20345;DHT22;10330;48.816;9.278;2022-12-17T02:31:38;-4.20;99.90
20345;DHT22;10330;48.816;9.278;2022-12-17T02:34:24;-4.20;99.90
20345;DHT22;10330;48.816;9.278;2022-12-17T02:37:09;-4.20;99.90
20345;DHT22;10330;48.816;9.278;2022-12-17T02:39:54;-4.20;99.90
20345;DHT22;10330;48.816;9.278;2022-12-17T02:42:44;-4.10;99.90
20345;DHT22;10330;48.816;9.278;2022-12-17T02:45:32;-4.10;99.90
20345;DHT22;10330;48.816;9.278;2022-12-17T02:48:18;-4.10;99.90
20345;DHT22;10330;48.816;9.278;2022-12-17T02:51:03;-4.10;99.90
20345;DHT22;10330;48.816;9.278;2022-12-17T02:53:52;-4.10;99.90
20345;DHT22;10330;48.816;9.278;2022-12-17T02:56:37;-4.10;99.90
20345;DHT22;10330;48.816;9.278;2022-12-17T02:59:24;-4.00;99.90
20345;DHT22;10330;48.816;9.278;2022-12-17T03:02:14;-4.00;99.90
20345;DHT22;10330;48.816;9.278;2022-12-17T03:04:59;-3.90;99.90
20345;DHT22;10330;48.816;9.278;2022-12-17T03:07:49;-3.90;99.90
20345;DHT22;10330;48.816;9.278;2022-12-17T03:10:34;-4.00;99.90
20345;DHT22;10330;48.816;9.278;2022-12-17T03:13:27;-3.90;99.90
20345;DHT22;10330;48.816;9.278;2022-12-17T03:16:15;-3.90;99.90
20345;DHT22;10330;48.816;9.278;2022-12-17T03:19:00;-3.90;99.90
20345;DHT22;10330;48.816;9.278;2022-12-17T03:21:46;-3.90;99.90
20345;DHT22;10330;48.816;9.278;2022-12-17T03:24:31;-3.90;99.90
20345;DHT22;10330;48.816;9.278;2022-12-17T03:27:16;-3.90;99.90
20345;DHT22;10330;48.816;9.278;2022-12-17T03:30:01;-3.80;99.90
20345;DHT22;10330;48.816;9.278;2022-12-17T03:32:45;-3.90;99.90
20345;DHT22;10330;48.816;9.278;2022-12-17T03:35:30;-3.90;99.90
20345;DHT22;10330;48.816;9.278;2022-12-17T03:38:15;-3.90;99.90
20345;DHT22;10330;48.816;9.278;2022-12-17T03:41:00;-3.90;99.90
20345;DHT22;10330;48.816;9.278;2022-12-17T03:43:44;-4.00;99.90
20345;DHT22;10330;48.816;9.278;2022-12-17T03:46:29;-4.00;99.90
20345;DHT22;10330;48.816;9.278;2022-12-17T03:49:14;-4.00;99.90
20345;DHT22;10330;48.816;9.278;2022-12-17T03:52:02;-3.90;99.90
20345;DHT22;10330;48.816;9.278;2022-12-17T03:54:47;-3.80;99.90
20345;DHT22;10330;48.816;9.278;2022-12-17T03:57:34;-3.80;99.90
20345;DHT22;10330;48.816;9.278;2022-12-17T04:00:22;-3.80;99.90
20345;DHT22;10330;48.816;9.278;2022-12-17T04:03:07;-3.80;99.90
20345;DHT22;10330;48.816;9.278;2022-12-17T04:05:51;-3.70;99.90
20345;DHT22;10330;48.816;9.278;2022-12-17T04:08:36;-3.70;99.90
20345;DHT22;10330;48.816;9.278;2022-12-17T04:11:23;-3.70;99.90
20345;DHT22;10330;48.816;9.278;2022-12-17T04:14:08;-3.70;99.90
20345;DHT22;10330;48.816;9.278;2022-12-17T04:16:53;-3.70;99.90
20345;DHT22;10330;48.816;9.278;2022-12-17T04:19:38;-3.60;99.90
20345;DHT22;10330;48.816;9.278;2022-12-17T04:22:23;-3.60;99.90
20345;DHT22;10330;48.816;9.278;2022-12-17T04:25:07;-3.60;99.90
20345;DHT22;10330;48.816;9.278;2022-12-17T04:27:52;-3.60;99.90
20345;DHT22;10330;48.816;9.278;2022-12-17T04:30:36;-3.60;99.90
20345;DHT22;10330;48.816;9.278;2022-12-17T04:33:24;-3.60;99.90
20345;DHT22;10330;48.816;9.278;2022-12-17T04:36:09;-3.50;99.90
20345;DHT22;10330;48.816;9.278;2022-12-17T04:38:54;-3.60;99.90
20345;DHT22;10330;48.816;9.278;2022-12-17T04:41:38;-3.60;99.90
20345;DHT22;10330;48.816;9.278;2022-12-17T04:44:26;-3.50;99.90
20345;DHT22;10330;48.816;9.278;2022-12-17T04:47:11;-3.60;99.90
20345;DHT22;10330;48.816;9.278;2022-12-17T04:49:58;-3.60;99.90
20345;DHT22;10330;48.816;9.278;2022-12-17T04:52:43;-3.50;99.90
20345;DHT22;10330;48.816;9.278;2022-12-17T04:55:28;-3.60;99.90
20345;DHT22;10330;48.816;9.278;2022-12-17T04:58:12;-3.50;99.90
20345;DHT22;10330;48.816;9.278;2022-12-17T05:00:57;-3.50;99.90
20345;DHT22;10330;48.816;9.278;2022-12-17T05:03:42;-3.60;99.90
20345;DHT22;10330;48.816;9.278;2022-12-17T05:06:27;-3.60;99.90
20345;DHT22;10330;48.816;9.278;2022-12-17T05:09:11;-3.60;99.90
20345;DHT22;10330;48.816;9.278;2022-12-17T05:11:56;-3.60;99.90
20345;DHT22;10330;48.816;9.278;2022-12-17T05:14:40;-3.60;99.90
20345;DHT22;10330;48.816;9.278;2022-12-17T05:17:25;-3.70;99.90
20345;DHT22;10330;48.816;9.278;2022-12-17T05:20:10;-3.70;99.90
20345;DHT22;10330;48.816;9.278;2022-12-17T05:22:54;-3.70;99.90
20345;DHT22;10330;48.816;9.278;2022-12-17T05:25:39;-3.70;99.90
20345;DHT22;10330;48.816;9.278;2022-12-17T05:28:24;-3.70;99.90
20345;DHT22;10330;48.816;9.278;2022-12-17T05:31:08;-3.70;99.90
20345;DHT22;10330;48.816;9.278;2022-12-17T05:33:53;-3.70;99.90
20345;DHT22;10330;48.816;9.278;2022-12-17T05:36:38;-3.80;99.90
20345;DHT22;10330;48.816;9.278;2022-12-17T05:39:22;-3.80;99.90
20345;DHT22;10330;48.816;9.278;2022-12-17T05:42:07;-3.70;99.90
20345;DHT22;10330;48.816;9.278;2022-12-17T05:44:52;-3.80;99.90
20345;DHT22;10330;48.816;9.278;2022-12-17T05:47:37;-3.80;99.90
20345;DHT22;10330;48.816;9.278;2022-12-17T05:50:21;-3.80;99.90
20345;DHT22;10330;48.816;9.278;2022-12-17T05:53:06;-3.80;99.90
20345;DHT22;10330;48.816;9.278;2022-12-17T05:55:52;-3.80;99.90
20345;DHT22;10330;48.816;9.278;2022-12-17T05:58:37;-3.90;99.90
20345;DHT22;10330;48.816;9.278;2022-12-17T06:01:22;-4.00;99.90
20345;DHT22;10330;48.816;9.278;2022-12-17T06:04:08;-3.90;99.90
20345;DHT22;10330;48.816;9.278;2022-12-17T06:06:53;-3.90;99.90
20345;DHT22;10330;48.816;9.278;2022-12-17T06:09:38;-3.90;99.90
20345;DHT22;10330;48.816;9.278;2022-12-17T06:12:23;-3.90;99.90
20345;DHT22;10330;48.816;9.278;2022-12-17T06:15:08;-3.90;99.90
20345;DHT22;10330;48.816;9.278;2022-12-17T06:17:54;-3.90;99.90
20345;DHT22;10330;48.816;9.278;2022-12-17T06:20:39;-4.00;99.90
20345;DHT22;10330;48.816;9.278;2022-12-17T06:23:24;-4.00;99.90
20345;DHT22;10330;48.816;9.278;2022-12-17T06:26:09;-4.00;99.90
20345;DHT22;10330;48.816;9.278;2022-12-17T06:28:54;-4.00;99.90
20345;DHT22;10330;48.816;9.278;2022-12-17T06:31:39;-4.10;99.90
20345;DHT22;10330;48.816;9.278;2022-12-17T06:34:24;-4.10;99.90
20345;DHT22;10330;48.816;9.278;2022-12-17T06:37:09;-4.10;99.90
20345;DHT22;10330;48.816;9.278;2022-12-17T06:39:53;-4.20;99.90
20345;DHT22;10330;48.816;9.278;2022-12-17T06:42:38;-4.10;99.90
20345;DHT22;10330;48.816;9.278;2022-12-17T06:45:22;-4.10;99.90
20345;DHT22;10330;48.816;9.278;2022-12-17T06:48:07;-4.20;99.90
20345;DHT22;10330;48.816;9.278;2022-12-17T06:50:53;-4.30;99.90
20345;DHT22;10330;48.816;9.278;2022-12-17T06:53:39;-4.20;99.90
20345;DHT22;10330;48.816;9.278;2022-12-17T06:56:23;-4.30;99.90
20345;DHT22;10330;48.816;9.278;2022-12-17T06:59:08;-4.30;99.90
20345;DHT22;10330;48.816;9.278;2022-12-17T07:01:53;-4.30;99.90
20345;DHT22;10330;48.816;9.278;2022-12-17T07:04:38;-4.20;99.90
20345;DHT22;10330;48.816;9.278;2022-12-17T07:07:22;-4.30;99.90
20345;DHT22;10330;48.816;9.278;2022-12-17T07:10:07;-4.30;99.90
20345;DHT22;10330;48.816;9.278;2022-12-17T07:12:52;-4.30;99.90
20345;DHT22;10330;48.816;9.278;2022-12-17T07:15:36;-4.30;99.90
20345;DHT22;10330;48.816;9.278;2022-12-17T07:18:21;-4.20;99.90
20345;DHT22;10330;48.816;9.278;2022-12-17T07:21:06;-4.30;99.90
20345;DHT22;10330;48.816;9.278;2022-12-17T07:23:50;-4.30;99.90
20345;DHT22;10330;48.816;9.278;2022-12-17T07:26:35;-4.30;99.90
20345;DHT22;10330;48.816;9.278;2022-12-17T07:29:19;-4.30;99.90
20345;DHT22;10330;48.816;9.278;2022-12-17T07:32:04;-4.30;99.90
20345;DHT22;10330;48.816;9.278;2022-12-17T07:34:49;-4.30;99.90
20345;DHT22;10330;48.816;9.278;2022-12-17T07:37:33;-4.30;99.90
20345;DHT22;10330;48.816;9.278;2022-12-17T07:40:18;-4.30;99.90
20345;DHT22;10330;48.816;9.278;2022-12-17T07:43:09;-4.30;99.90
20345;DHT22;10330;48.816;9.278;2022-12-17T07:45:55;-4.20;99.90
20345;DHT22;10330;48.816;9.278;2022-12-17T07:48:39;-4.20;99.90
20345;DHT22;10330;48.816;9.278;2022-12-17T07:51:24;-4.10;99.90
20345;DHT22;10330;48.816;9.278;2022-12-17T07:54:09;-4.10;99.90
20345;DHT22;10330;48.816;9.278;2022-12-17T07:56:53;-4.20;99.90
20345;DHT22;10330;48.816;9.278;2022-12-17T07:59:38;-4.10;99.90
20345;DHT22;10330;48.816;9.278;2022-12-17T08:02:23;-4.10;99.90
20345;DHT22;10330;48.816;9.278;2022-12-17T08:05:08;-4.10;99.90
20345;DHT22;10330;48.816;9.278;2022-12-17T08:07:53;-4.00;99.90
20345;DHT22;10330;48.816;9.278;2022-12-17T08:10:37;-4.00;99.90
20345;DHT22;10330;48.816;9.278;2022-12-17T08:13:22;-4.00;99.90
20345;DHT22;10330;48.816;9.278;2022-12-17T08:16:07;-4.00;99.90
20345;DHT22;10330;48.816;9.278;2022-12-17T08:18:54;-4.10;99.90
20345;DHT22;10330;48.816;9.278;2022-12-17T08:21:39;-4.10;99.90
20345;DHT22;10330;48.816;9.278;2022-12-17T08:24:23;-4.00;99.90
20345;DHT22;10330;48.816;9.278;2022-12-17T08:27:08;-4.00;99.90
20345;DHT22;10330;48.816;9.278;2022-12-17T08:29:53;-3.90;99.90
20345;DHT22;10330;48.816;9.278;2022-12-17T08:32:38;-3.90;99.90
20345;DHT22;10330;48.816;9.278;2022-12-17T08:35:22;-3.70;99.90
20345;DHT22;10330;48.816;9.278;2022-12-17T08:38:07;-3.70;99.90
20345;DHT22;10330;48.816;9.278;2022-12-17T08:40:52;-3.70;99.90
20345;DHT22;10330;48.816;9.278;2022-12-17T08:43:40;-3.70;99.90
20345;DHT22;10330;48.816;9.278;2022-12-17T08:46:25;-3.60;99.90
20345;DHT22;10330;48.816;9.278;2022-12-17T08:49:09;-3.60;99.90
20345;DHT22;10330;48.816;9.278;2022-12-17T08:51:54;-3.60;99.90
20345;DHT22;10330;48.816;9.278;2022-12-17T08:54:39;-3.50;99.90
20345;DHT22;10330;48.816;9.278;2022-12-17T08:57:24;-3.50;99.90
20345;DHT22;10330;48.816;9.278;2022-12-17T09:00:09;-3.40;99.90
20345;DHT22;10330;48.816;9.278;2022-12-17T09:02:58;-3.40;99.90
20345;DHT22;10330;48.816;9.278;2022-12-17T09:05:43;-3.40;99.90
20345;DHT22;10330;48.816;9.278;2022-12-17T09:08:28;-3.30;99.90
20345;DHT22;10330;48.816;9.278;2022-12-17T09:11:13;-3.30;99.90
20345;DHT22;10330;48.816;9.278;2022-12-17T09:13:58;-3.20;99.90
20345;DHT22;10330;48.816;9.278;2022-12-17T09:16:43;-3.20;99.90
20345;DHT22;10330;48.816;9.278;2022-12-17T09:19:28;-3.00;99.90
20345;DHT22;10330;48.816;9.278;2022-12-17T09:22:13;-3.20;99.90
20345;DHT22;10330;48.816;9.278;2022-12-17T09:25:00;-3.20;99.90
20345;DHT22;10330;48.816;9.278;2022-12-17T09:27:45;-3.10;99.90
20345;DHT22;10330;48.816;9.278;2022-12-17T09:30:31;-3.00;99.90
20345;DHT22;10330;48.816;9.278;2022-12-17T09:33:16;-3.00;99.90
20345;DHT22;10330;48.816;9.278;2022-12-17T09:36:03;-2.90;99.90
20345;DHT22;10330;48.816;9.278;2022-12-17T09:38:48;-3.00;99.90
20345;DHT22;10330;48.816;9.278;2022-12-17T09:47:48;-2.80;99.90
20345;DHT22;10330;48.816;9.278;2022-12-17T09:50:35;-2.70;99.90
20345;DHT22;10330;48.816;9.278;2022-12-17T09:56:12;-2.70;99.90
20345;DHT22;10330;48.816;9.278;2022-12-17T09:59:03;-2.70;99.90
20345;DHT22;10330;48.816;9.278;2022-12-17T10:02:00;-2.60;99.90
20345;DHT22;10330;48.816;9.278;2022-12-17T10:04:55;-2.60;99.90
20345;DHT22;10330;48.816;9.278;2022-12-17T10:07:41;-2.50;99.90
20345;DHT22;10330;48.816;9.278;2022-12-17T10:10:30;-2.50;99.90
20345;DHT22;10330;48.816;9.278;2022-12-17T10:13:23;-2.50;99.90
20345;DHT22;10330;48.816;9.278;2022-12-17T10:16:32;-2.30;99.90
20345;DHT22;10330;48.816;9.278;2022-12-17T10:19:35;-2.30;99.90
20345;DHT22;10330;48.816;9.278;2022-12-17T10:22:21;-2.30;99.90
20345;DHT22;10330;48.816;9.278;2022-12-17T10:25:18;-2.30;99.90
20345;DHT22;10330;48.816;9.278;2022-12-17T10:28:14;-2.20;99.90
20345;DHT22;10330;48.816;9.278;2022-12-17T10:31:00;-2.20;99.90
20345;DHT22;10330;48.816;9.278;2022-12-17T10:33:46;-2.20;99.90
20345;DHT22;10330;48.816;9.278;2022-12-17T10:36:31;-2.20;99.90
20345;DHT22;10330;48.816;9.278;2022-12-17T10:39:23;-2.20;99.90
20345;DHT22;10330;48.816;9.278;2022-12-17T10:42:23;-2.20;99.90
20345;DHT22;10330;48.816;9.278;2022-12-17T10:48:30;-2.10;99.90
20345;DHT22;10330;48.816;9.278;2022-12-17T11:03:02;-1.70;99.90
20345;DHT22;10330;48.816;9.278;2022-12-17T11:05:49;-1.80;99.90
20345;DHT22;10330;48.816;9.278;2022-12-17T11:08:36;-1.90;99.90
20345;DHT22;10330;48.816;9.278;2022-12-17T11:11:25;-1.90;99.90
20345;DHT22;10330;48.816;9.278;2022-12-17T11:14:12;-1.70;99.90
20345;DHT22;10330;48.816;9.278;2022-12-17T11:17:01;-1.70;99.90
20345;DHT22;10330;48.816;9.278;2022-12-17T11:20:00;-1.80;99.90
20345;DHT22;10330;48.816;9.278;2022-12-17T11:22:52;-1.70;99.90
20345;DHT22;10330;48.816;9.278;2022-12-17T11:25:49;-1.70;99.90
20345;DHT22;10330;48.816;9.278;2022-12-17T11:28:39;-1.70;99.90
20345;DHT22;10330;48.816;9.278;2022-12-17T11:41:22;-1.60;99.90
20345;DHT22;10330;48.816;9.278;2022-12-17T11:48:06;-1.60;99.90
20345;DHT22;10330;48.816;9.278;2022-12-17T12:05:44;-1.40;99.90
20345;DHT22;10330;48.816;9.278;2022-12-17T12:08:25;-1.40;99.90
20345;DHT22;10330;48.816;9.278;2022-12-17T12:14:25;-1.60;99.90
20345;DHT22;10330;48.816;9.278;2022-12-17T12:22:58;-1.60;99.90
20345;DHT22;10330;48.816;9.278;2022-12-17T12:34:51;-1.70;99.90
20345;DHT22;10330;48.816;9.278;2022-12-17T12:37:38;-1.60;99.90
20345;DHT22;10330;48.816;9.278;2022-12-17T12:44:21;-1.40;99.90
20345;DHT22;10330;48.816;9.278;2022-12-17T12:51:34;-1.40;99.90
20345;DHT22;10330;48.816;9.278;2022-12-17T12:58:00;0.20;99.90
20345;DHT22;10330;48.816;9.278;2022-12-17T13:05:03;1.60;99.90
20345;DHT22;10330;48.816;9.278;2022-12-17T13:19:44;2.00;99.90
20345;DHT22;10330;48.816;9.278;2022-12-17T13:29:09;2.20;99.90
20345;DHT22;10330;48.816;9.278;2022-12-17T13:41:19;1.90;99.90
20345;DHT22;10330;48.816;9.278;2022-12-17T13:44:52;2.10;99.90
20345;DHT22;10330;48.816;9.278;2022-12-17T14:13:13;1.60;99.90
20345;DHT22;10330;48.816;9.278;2022-12-17T21:36:22;-6.70;99.90
20345;DHT22;10330;48.816;9.278;2022-12-17T21:38:49;-6.60;99.90
20345;DHT22;10330;48.816;9.278;2022-12-17T21:41:18;-6.50;99.90
20345;DHT22;10330;48.816;9.278;2022-12-17T21:43:45;-6.70;99.90
20345;DHT22;10330;48.816;9.278;2022-12-17T21:46:12;-6.70;99.90
20345;DHT22;10330;48.816;9.278;2022-12-17T21:48:40;-6.80;99.90
20345;DHT22;10330;48.816;9.278;2022-12-17T21:51:08;-7.00;99.90
20345;DHT22;10330;48.816;9.278;2022-12-17T21:53:35;-7.10;99.90
20345;DHT22;10330;48.816;9.278;2022-12-17T21:56:06;-7.00;99.90
20345;DHT22;10330;48.816;9.278;2022-12-17T21:58:32;-7.00;99.90
20345;DHT22;10330;48.816;9.278;2022-12-17T22:01:11;-6.90;99.90
20345;DHT22;10330;48.816;9.278;2022-12-17T22:03:38;-7.00;99.90
20345;DHT22;10330;48.816;9.278;2022-12-17T22:06:13;-7.00;99.90
20345;DHT22;10330;48.816;9.278;2022-12-17T22:08:40;-7.10;99.90
20345;DHT22;10330;48.816;9.278;2022-12-17T22:11:15;-7.10;99.90
20345;DHT22;10330;48.816;9.278;2022-12-17T22:13:43;-7.20;99.90
20345;DHT22;10330;48.816;9.278;2022-12-17T22:16:43;-7.30;99.90
20345;DHT22;10330;48.816;9.278;2022-12-17T22:19:14;-7.20;99.90
20345;DHT22;10330;48.816;9.278;2022-12-17T22:21:42;-7.20;99.90
20345;DHT22;10330;48.816;9.278;2022-12-17T22:24:19;-7.10;99.90
20345;DHT22;10330;48.816;9.278;2022-12-17T22:26:47;-7.10;99.90
20345;DHT22;10330;48.816;9.278;2022-12-17T22:29:14;-7.10;99.90
20345;DHT22;10330;48.816;9.278;2022-12-17T22:32:00;-7.20;99.90
20345;DHT22;10330;48.816;9.278;2022-12-17T22:34:45;-7.30;99.90
20345;DHT22;10330;48.816;9.278;2022-12-17T22:37:11;-7.20;99.90
20345;DHT22;10330;48.816;9.278;2022-12-17T22:39:38;-7.30;99.90
20345;DHT22;10330;48.816;9.278;2022-12-17T22:42:04;-7.30;99.90
20345;DHT22;10330;48.816;9.278;2022-12-17T22:44:49;-7.30;99.90
20345;DHT22;10330;48.816;9.278;2022-12-17T22:47:15;-7.30;99.90
20345;DHT22;10330;48.816;9.278;2022-12-17T22:49:41;-7.40;99.90
20345;DHT22;10330;48.816;9.278;2022-12-17T22:52:07;-7.30;99.90
20345;DHT22;10330;48.816;9.278;2022-12-17T22:54:34;-7.40;99.90
20345;DHT22;10330;48.816;9.278;2022-12-17T22:57:00;-7.40;99.90
20345;DHT22;10330;48.816;9.278;2022-12-17T22:59:26;-7.40;99.90
20345;DHT22;10330;48.816;9.278;2022-12-17T23:01:52;-7.40;99.90
20345;DHT22;10330;48.816;9.278;2022-12-17T23:04:19;-7.40;99.90
20345;DHT22;10330;48.816;9.278;2022-12-17T23:06:45;-7.30;99.90
20345;DHT22;10330;48.816;9.278;2022-12-17T23:09:12;-7.40;99.90
20345;DHT22;10330;48.816;9.278;2022-12-17T23:11:39;-7.30;99.90
20345;DHT22;10330;48.816;9.278;2022-12-17T23:14:06;-7.30;99.90
20345;DHT22;10330;48.816;9.278;2022-12-17T23:16:33;-7.30;99.90
20345;DHT22;10330;48.816;9.278;2022-12-17T23:19:00;-7.30;99.90
20345;DHT22;10330;48.816;9.278;2022-12-17T23:21:27;-7.30;99.90
20345;DHT22;10330;48.816;9.278;2022-12-17T23:23:54;-7.20;99.90
20345;DHT22;10330;48.816;9.278;2022-12-17T23:26:26;-7.20;99.90
20345;DHT22;10330;48.816;9.278;2022-12-17T23:28:54;-7.20;99.90
20345;DHT22;10330;48.816;9.278;2022-12-17T23:31:24;-7.20;99.90
20345;DHT22;10330;48.816;9.278;2022-12-17T23:33:51;-7.20;99.90
20345;DHT22;10330;48.816;9.278;2022-12-17T23:36:19;-7.20;99.90
20345;DHT22;10330;48.816;9.278;2022-12-17T23:38:47;-7.20;99.90
20345;DHT22;10330;48.816;9.278;2022-12-17T23:41:19;-7.30;99.90
20345;DHT22;10330;48.816;9.278;2022-12-17T23:43:46;-7.30;99.90
20345;DHT22;10330;48.816;9.278;2022-12-17T23:46:13;-7.30;99.90
20345;DHT22;10330;48.816;9.278;2022-12-17T23:48:41;-7.30;99.90
20345;DHT22;10330;48.816;9.278;2022-12-17T23:51:09;-7.40;99.90
20345;DHT22;10330;48.816;9.278;2022-12-17T23:53:36;-7.50;99.90
20345;DHT22;10330;48.816;9.278;2022-12-17T23:56:07;-7.50;99.90
20345;DHT22;10330;48.816;9.278;2022-12-17T23:58:34;-7.50;99.90
